Time;durP1;ratioP1;P1;durP2;ratioP2;P2;SDS_P1;SDS_P2;PMS_P1;PMS_P2;Temp;Humidity;BMP_temperature;BMP_pressure;BME280_temperature;BME280_humidity;BME280_pressure;Samples;Min_cycle;Max_cycle;Signal;HPM_P1;HPM_P2
2024/01/20 13:30:43;;;;;;;3.03;1.60;;;;;;;0.93;48.98;98964.91;6327197;27;20444;-87
2024/01/20 13:35:03;;;;;;;1.80;1.25;;;;;;;0.45;48.84;98853.31;6274517;27;1556248;-87
2024/01/20 13:38:06;;;;;;;1.95;1.45;;;;;;;0.59;50.78;98915.75;6285428;28;20584;-93
2024/01/20 13:41:08;;;;;;;3.15;1.35;;;;;;;-0.06;50.96;98821.47;6289999;28;20905;-92
2024/01/20 13:44:10;;;;;;;5.27;1.87;;;;;;;0.47;50.02;98904.63;6307582;28;20202;-92
2024/01/20 13:47:15;;;;;;;0.90;0.80;;;;;;;0.78;50.28;98933.13;6289611;28;20203;-91
2024/01/20 13:50:18;;;;;;;1.70;1.23;;;;;;;0.43;52.89;98926.03;6310952;28;20202;-92
2024/01/20 13:53:21;;;;;;;1.20;0.90;;;;;;;-0.43;46.42;98802.38;6289734;28;20212;-92
2024/01/20 13:56:25;;;;;;;1.13;1.00;;;;;;;-0.75;50.47;98803.56;6284480;28;20202;-88
2024/01/20 13:59:34;;;;;;;0.77;0.73;;;;;;;-1.81;52.14;98647.78;6301299;28;20571;-93
2024/01/20 14:02:38;;;;;;;2.07;0.90;;;;;;;-2.44;52.63;98600.41;6287125;28;20194;-93
2024/01/20 14:05:46;;;;;;;1.60;1.00;;;;;;;-0.29;52.53;98946.72;6301417;28;20198;-92
2024/01/20 14:08:50;;;;;;;2.10;1.20;;;;;;;-1.27;50.13;98792.69;6294371;28;20315;-92
2024/01/20 14:11:55;;;;;;;2.43;1.20;;;;;;;-1.47;52.70;98703.03;6286255;28;20295;-93
2024/01/20 14:14:58;;;;;;;1.40;1.20;;;;;;;0.10;50.94;98985.91;6307327;28;20287;-93
2024/01/20 14:18:01;;;;;;;1.83;1.10;;;;;;;-0.33;54.79;98932.25;6291807;28;20191;-91
2024/01/20 14:21:04;;;;;;;1.50;0.80;;;;;;;-1.47;53.66;98784.03;6289584;28;20202;-92
2024/01/20 14:24:07;;;;;;;3.07;1.03;;;;;;;-0.79;55.54;98905.09;6293757;28;20187;-93
2024/01/20 14:27:10;;;;;;;1.70;0.80;;;;;;;-1.69;47.87;98706.75;6289614;28;20223;-89
2024/01/20 14:30:13;;;;;;;1.87;0.90;;;;;;;-0.17;49.78;98941.31;6281607;28;20198;-90
2024/01/20 14:33:15;;;;;;;1.80;0.90;;;;;;;-0.70;54.69;98899.94;6284216;28;20233;-91
2024/01/20 14:36:18;;;;;;;2.70;1.00;;;;;;;-1.48;55.73;98813.72;6306766;28;20191;-91
2024/01/20 14:39:22;;;;;;;1.47;0.90;;;;;;;-2.22;56.73;98751.50;6305096;28;20207;-92
2024/01/20 14:42:25;;;;;;;0.73;0.70;;;;;;;-1.86;58.73;98814.53;6301142;28;20198;-90
2024/01/20 14:45:27;;;;;;;3.70;1.20;;;;;;;-3.12;55.80;98628.97;6280420;28;20194;-92
2024/01/20 14:48:30;;;;;;;0.83;0.70;;;;;;;-1.52;56.85;98895.16;6270822;28;20206;-89
2024/01/20 14:51:35;;;;;;;0.90;0.77;;;;;;;-0.68;56.91;98994.84;6274684;28;20251;-88
2024/01/20 14:54:38;;;;;;;1.93;1.00;;;;;;;-1.84;55.88;98838.72;6283074;28;20216;-88
2024/01/20 14:57:43;;;;;;;0.93;0.77;;;;;;;-1.91;58.97;98846.25;6287817;28;20260;-88
2024/01/20 15:00:46;;;;;;;1.23;0.80;;;;;;;-2.09;59.68;98819.13;6266256;28;20191;-88
2024/01/20 15:03:48;;;;;;;0.90;0.70;;;;;;;-3.11;60.75;98688.75;6270308;28;20265;-88
2024/01/20 15:06:51;;;;;;;1.10;0.90;;;;;;;-2.05;61.11;98864.09;6281656;28;20640;-88
2024/01/20 15:09:54;;;;;;;1.70;0.90;;;;;;;-2.10;63.13;98882.75;6275241;28;20205;-87
2024/01/20 15:12:56;;;;;;;0.93;0.80;;;;;;;-2.22;63.54;98873.34;6271077;28;20210;-89
2024/01/20 15:15:59;;;;;;;1.70;1.10;;;;;;;-2.91;63.73;98791.34;6282303;28;20195;-90
2024/01/20 15:19:03;;;;;;;1.67;0.73;;;;;;;-3.01;63.16;98795.66;6284398;28;20588;-89
2024/01/20 15:22:06;;;;;;;9.70;6.33;;;;;;;-2.91;62.07;98835.66;6269458;28;20195;-89
2024/01/20 15:25:12;;;;;;;4.53;3.53;;;;;;;-1.62;63.10;99039.66;6287127;28;20631;-89
2024/01/20 15:28:15;;;;;;;3.13;2.00;;;;;;;-3.50;63.21;98775.47;6278115;28;20183;-89
2024/01/20 15:31:17;;;;;;;5.27;3.27;;;;;;;-2.33;63.73;98976.88;6269625;28;20209;-89
2024/01/20 15:34:23;;;;;;;6.90;4.57;;;;;;;-3.92;64.76;98673.91;6273373;28;20241;-89
2024/01/20 15:37:34;;;;;;;3.33;2.00;;;;;;;-3.39;66.01;98840.53;6281378;28;20200;-90
2024/01/20 15:40:36;;;;;;;3.03;1.40;;;;;;;-3.15;62.46;98887.22;6279654;28;20198;-91
2024/01/20 15:43:38;;;;;;;1.17;0.87;;;;;;;-2.84;65.44;98916.81;6287879;28;20686;-90
2024/01/20 15:46:42;;;;;;;1.30;1.10;;;;;;;-2.67;68.59;98988.44;6275758;28;20348;-88
2024/01/20 15:49:44;;;;;;;1.57;1.13;;;;;;;-4.82;65.72;98596.22;6267440;28;20198;-90
2024/01/20 15:52:49;;;;;;;1.30;0.93;;;;;;;-2.47;56.86;98867.59;6281485;28;20496;-90
2024/01/20 15:55:53;;;;;;;1.93;1.00;;;;;;;-2.55;53.55;98785.75;6285485;28;20203;-90
2024/01/20 15:58:59;;;;;;;1.70;1.10;;;;;;;-2.70;53.50;98762.63;6281021;28;20619;-95
2024/01/20 16:02:01;;;;;;;1.50;1.10;;;;;;;-2.25;54.53;98795.34;6278374;28;20210;-94
2024/01/20 16:05:05;;;;;;;2.13;1.00;;;;;;;-2.95;52.08;98675.25;6262698;28;20203;-95
2024/01/20 16:08:07;;;;;;;1.33;0.93;;;;;;;-0.91;49.64;98968.13;6273139;28;20183;-94
2024/01/20 16:11:12;;;;;;;2.77;0.93;;;;;;;-1.85;50.34;98783.03;6269012;28;20207;-89
2024/01/20 16:14:14;;;;;;;1.27;1.17;;;;;;;-1.11;52.84;98904.53;6279866;28;20214;-89
2024/01/20 16:17:17;;;;;;;1.50;1.10;;;;;;;-0.76;49.42;98961.50;6283082;28;20286;-89
2024/01/20 16:20:20;;;;;;;2.53;1.10;;;;;;;-0.45;49.18;99004.06;6287092;28;20276;-90
2024/01/20 16:23:22;;;;;;;1.63;1.00;;;;;;;-1.19;48.38;98837.22;6269947;28;20198;-89
2024/01/20 16:26:25;;;;;;;2.67;1.20;;;;;;;-0.63;49.43;98967.31;6278128;28;20195;-89
2024/01/20 16:29:28;;;;;;;4.10;1.33;;;;;;;-0.66;51.40;98964.94;6258550;28;20396;-89
2024/01/20 16:32:31;;;;;;;2.47;1.53;;;;;;;-1.05;51.56;98883.06;6267985;28;20241;-89
2024/01/20 16:35:34;;;;;;;1.73;1.30;;;;;;;-0.88;51.88;98947.75;6267095;28;20214;-89
2024/01/20 16:38:37;;;;;;;1.93;1.50;;;;;;;-1.00;49.76;98929.72;6277561;28;20198;-87
2024/01/20 16:41:39;;;;;;;3.00;1.20;;;;;;;-0.94;49.27;98923.94;6270253;28;20577;-86
2024/01/20 16:44:42;;;;;;;3.67;1.20;;;;;;;-1.68;50.42;98818.09;6284149;28;20690;-84
2024/01/20 16:47:45;;;;;;;1.40;1.20;;;;;;;0.01;50.18;99085.47;6295472;28;20194;-87
2024/01/20 16:50:47;;;;;;;2.17;1.53;;;;;;;-0.82;48.85;98983.00;6274811;28;20701;-87
2024/01/20 16:53:50;;;;;;;1.77;1.20;;;;;;;-1.09;50.27;98906.03;6284379;28;20272;-87
2024/01/20 16:56:52;;;;;;;1.57;1.20;;;;;;;-0.50;47.60;99011.50;6294906;28;20197;-87
2024/01/20 16:59:55;;;;;;;2.77;1.40;;;;;;;-0.23;48.51;99018.66;6268607;28;20571;-88
2024/01/20 17:02:58;;;;;;;1.53;1.10;;;;;;;-0.39;48.13;99010.53;6288502;28;20272;-86
2024/01/20 17:06:00;;;;;;;2.57;1.10;;;;;;;-0.97;48.10;98934.69;6269902;28;20198;-87
2024/01/20 17:09:03;;;;;;;2.43;1.03;;;;;;;-0.84;46.89;98946.53;6295144;28;20205;-89
2024/01/20 17:12:06;;;;;;;1.57;1.13;;;;;;;0.21;47.45;99110.69;6298972;28;20284;-86
2024/01/20 17:15:09;;;;;;;2.17;1.10;;;;;;;-0.61;50.67;99016.88;6271985;28;20217;-87
2024/01/20 17:18:13;;;;;;;2.47;1.00;;;;;;;-0.04;48.83;99122.56;6294570;28;20205;-87
2024/01/20 17:21:16;;;;;;;1.93;1.20;;;;;;;-0.96;46.38;98970.31;6288992;28;20205;-87
2024/01/20 17:24:20;;;;;;;6.67;2.20;;;;;;;-0.61;46.00;98996.75;6286871;28;20561;-86
2024/01/20 17:27:23;;;;;;;1.30;1.10;;;;;;;0.47;44.91;99124.81;6294084;28;20667;-87
2024/01/20 17:30:25;;;;;;;1.37;1.07;;;;;;;-0.79;44.91;98941.69;6274518;28;20194;-87
2024/01/20 17:33:28;;;;;;;1.67;1.10;;;;;;;-1.43;45.53;98876.88;6283885;28;20384;-88
2024/01/20 17:36:30;;;;;;;1.07;0.80;;;;;;;-0.17;43.51;99035.59;6272706;28;20621;-87
2024/01/20 17:39:37;;;;;;;2.03;1.23;;;;;;;-0.23;43.79;99031.75;6260323;28;20388;-87
2024/01/20 17:42:39;;;;;;;1.30;0.90;;;;;;;-0.81;44.77;98956.69;6256692;28;20306;-84
2024/01/20 17:45:42;;;;;;;1.20;1.00;;;;;;;0.12;44.27;99073.03;6262971;28;20195;-89
2024/01/20 17:48:45;;;;;;;2.37;0.93;;;;;;;-0.86;45.76;98955.47;6291297;28;20271;-92
2024/01/20 17:51:48;;;;;;;1.00;0.80;;;;;;;-0.44;46.83;99071.16;6279112;28;20397;-92
2024/01/20 17:54:50;;;;;;;0.83;0.80;;;;;;;-0.32;44.09;99064.81;6276025;28;20215;-92
2024/01/20 17:57:53;;;;;;;1.63;1.00;;;;;;;0.15;44.47;99143.50;6283964;28;20213;-91
2024/01/20 18:01:02;;;;;;;1.23;0.80;;;;;;;-0.50;43.42;99029.81;6269974;28;20254;-93
2024/01/20 18:04:05;;;;;;;1.17;0.80;;;;;;;0.20;44.69;99149.16;6286891;28;20198;-93
2024/01/20 18:07:08;;;;;;;0.93;0.70;;;;;;;-0.82;42.55;98981.22;6267507;28;20209;-95
2024/01/20 18:10:10;;;;;;;1.93;0.60;;;;;;;-0.11;43.35;99087.41;6279320;28;20207;-92
2024/01/20 18:13:13;;;;;;;3.43;0.90;;;;;;;-0.56;42.11;98981.47;6281202;28;20285;-95
2024/01/20 18:16:16;;;;;;;1.23;0.90;;;;;;;-2.24;42.28;98761.25;6268220;28;20191;-93
2024/01/20 18:19:19;;;;;;;0.67;0.50;;;;;;;-0.52;41.54;98989.88;6278573;28;20206;-88
2024/01/20 18:22:22;;;;;;;1.17;0.70;;;;;;;-0.50;40.33;98982.69;6289762;28;20206;-88
2024/01/20 18:25:24;;;;;;;1.07;0.97;;;;;;;0.59;42.32;99153.50;6287945;28;20197;-87
2024/01/20 18:28:29;;;;;;;1.13;0.73;;;;;;;-0.66;43.72;98990.28;6276855;28;20203;-90
2024/01/20 18:31:32;;;;;;;1.53;0.83;;;;;;;-0.05;40.92;99065.88;6258522;28;20196;-90
2024/01/20 18:34:36;;;;;;;1.33;1.03;;;;;;;0.39;40.70;99122.06;6296068;28;20235;-90
2024/01/20 18:37:41;;;;;;;0.70;0.60;;;;;;;-0.14;41.16;99092.94;6286613;28;20203;-89
2024/01/20 18:40:44;;;;;;;0.87;0.77;;;;;;;0.10;41.38;99101.19;6286447;28;20592;-87
2024/01/20 18:43:47;;;;;;;1.23;0.87;;;;;;;-0.97;42.17;98966.88;6265122;28;20347;-88
2024/01/20 18:46:50;;;;;;;8.23;4.03;;;;;;;-0.25;45.16;99104.34;6286450;28;20212;-89
2024/01/20 18:49:53;;;;;;;0.83;0.73;;;;;;;-0.75;43.49;99025.97;6277722;28;20202;-90
2024/01/20 18:52:56;;;;;;;1.40;1.00;;;;;;;-0.47;46.39;99152.59;6282209;28;20657;-88
2024/01/20 18:55:59;;;;;;;0.77;0.60;;;;;;;-0.98;43.30;99008.88;6281653;28;20218;-88
2024/01/20 18:59:02;;;;;;;0.77;0.70;;;;;;;-0.71;43.47;99058.75;6285414;28;20759;-89
2024/01/20 19:02:05;;;;;;;1.17;0.80;;;;;;;0.11;47.44;99204.19;6304778;28;20198;-88
2024/01/20 19:05:09;;;;;;;1.00;0.60;;;;;;;-0.44;42.71;99096.50;6304747;28;20201;-88
2024/01/20 19:08:11;;;;;;;0.60;0.60;;;;;;;-0.62;42.33;99033.53;6301512;28;20202;-96
2024/01/20 19:11:23;;;;;;;1.07;0.83;;;;;;;-0.09;42.94;99106.44;6297915;28;20213;-95
2024/01/20 19:14:26;;;;;;;2.07;0.60;;;;;;;-0.66;44.57;99069.63;6285748;28;20210;-95
2024/01/20 19:17:29;;;;;;;1.03;0.70;;;;;;;-0.93;42.22;98986.59;6285090;28;20201;-87
2024/01/20 19:20:37;;;;;;;1.90;0.50;;;;;;;-0.14;41.98;99125.19;6281949;28;20206;-90
2024/01/20 19:23:44;;;;;;;0.90;0.67;;;;;;;-0.23;40.40;99099.00;6278097;28;20252;-90
2024/01/20 19:26:47;;;;;;;1.90;0.90;;;;;;;-0.90;40.93;98988.91;6275710;28;20221;-94
2024/01/20 19:29:59;;;;;;;0.50;0.50;;;;;;;-2.47;40.89;98768.47;6275697;28;20209;-94
2024/01/20 19:33:09;;;;;;;1.90;0.70;;;;;;;-0.25;42.17;99099.13;6303825;28;20565;-94
2024/01/20 19:36:11;;;;;;;0.50;0.50;;;;;;;-3.06;41.85;98674.50;6285660;28;20259;-92
2024/01/20 19:39:14;;;;;;;2.50;0.70;;;;;;;-2.11;42.40;98883.72;6288715;28;20266;-92
2024/01/20 19:42:17;;;;;;;0.50;0.50;;;;;;;-1.12;40.73;98997.03;6299038;28;20682;-92
2024/01/20 19:45:19;;;;;;;0.40;0.40;;;;;;;-1.14;39.58;98959.69;6283176;28;20229;-92
2024/01/20 19:48:22;;;;;;;1.80;0.60;;;;;;;-0.46;40.81;99082.72;6281550;28;20716;-91
2024/01/20 19:51:25;;;;;;;0.43;0.43;;;;;;;-0.37;40.37;99084.53;6284937;28;20198;-91
2024/01/20 19:54:29;;;;;;;0.53;0.53;;;;;;;-0.36;40.47;99107.94;6296772;28;20722;-91
2024/01/20 19:57:31;;;;;;;0.73;0.70;;;;;;;-0.14;42.24;99140.09;6295942;28;20209;-93
2024/01/20 20:00:34;;;;;;;1.70;0.67;;;;;;;-1.76;43.14;98932.91;6293366;28;20253;-92
2024/01/20 20:03:36;;;;;;;1.70;0.70;;;;;;;0.16;41.23;99192.34;6298460;28;20193;-92
2024/01/20 20:06:41;;;;;;;1.03;0.93;;;;;;;-0.07;46.03;99198.78;6296026;28;20208;-92
2024/01/20 20:09:44;;;;;;;0.57;0.50;;;;;;;-0.78;40.72;99041.94;6296399;28;20187;-93
2024/01/20 20:12:47;;;;;;;0.63;0.50;;;;;;;-0.72;40.89;99051.03;6290058;28;20197;-92
2024/01/20 20:15:50;;;;;;;1.23;0.57;;;;;;;-1.43;43.35;98936.97;6295880;28;20565;-92
2024/01/20 20:18:52;;;;;;;0.47;0.43;;;;;;;-1.73;49.11;98974.41;6294408;28;20476;-89
2024/01/20 20:21:55;;;;;;;1.00;0.70;;;;;;;-1.90;50.14;99059.44;6278101;28;20197;-88
2024/01/20 20:24:58;;;;;;;2.47;0.63;;;;;;;-1.98;53.60;99090.56;6301098;28;20189;-89
2024/01/20 20:28:00;;;;;;;1.43;0.70;;;;;;;-2.28;53.42;99073.06;6295692;28;20306;-91
2024/01/20 20:31:05;;;;;;;1.63;0.60;;;;;;;-2.89;53.10;98998.00;6297692;28;20248;-93
2024/01/20 20:34:12;;;;;;;0.93;0.70;;;;;;;-3.12;54.95;99015.50;6296735;28;20226;-94
2024/01/20 20:37:14;;;;;;;1.10;0.63;;;;;;;-2.61;56.47;99090.50;6283080;28;20212;-95
2024/01/20 20:40:20;;;;;;;0.90;0.80;;;;;;;-4.73;53.84;98758.38;6285307;28;20284;-93
2024/01/20 20:43:42;;;;;;;0.87;0.70;;;;;;;-4.67;49.91;98719.75;6296644;28;20209;-93
2024/01/20 20:46:45;;;;;;;1.07;0.73;;;;;;;-4.78;55.55;98727.56;6281643;28;20289;-93
2024/01/20 20:50:05;;;;;;;1.17;1.07;;;;;;;-3.49;52.49;98894.34;6281540;28;20260;-93
2024/01/20 20:53:08;;;;;;;1.57;0.73;;;;;;;-4.28;52.38;98818.19;6280265;28;20199;-90
2024/01/20 20:56:12;;;;;;;0.83;0.50;;;;;;;-2.55;52.62;99080.53;6297256;28;20213;-92
2024/01/20 20:59:17;;;;;;;0.70;0.50;;;;;;;-3.33;55.97;99003.34;6300348;28;20209;-93
2024/01/20 21:02:57;;;;;;;1.03;0.63;;;;;;;-5.06;56.13;98721.06;6304382;28;20191;-92
2024/01/20 21:06:14;;;;;;;0.97;0.60;;;;;;;-3.81;53.49;98861.25;6285977;28;20195;-94
2024/01/20 21:09:44;;;;;;;2.30;0.50;;;;;;;-2.29;52.15;99104.50;6281857;28;20209;-94
2024/01/20 21:13:04;;;;;;;0.33;0.30;;;;;;;-2.51;48.89;99032.34;6167799;28;20214;-92
2024/01/20 21:16:07;;;;;;;1.90;0.60;;;;;;;-4.02;44.05;98693.81;6154917;28;20222;-92
2024/01/20 21:19:13;;;;;;;0.83;0.50;;;;;;;-2.29;50.38;99037.47;6162301;28;20198;-93
2024/01/20 21:22:16;;;;;;;0.50;0.40;;;;;;;-2.58;50.72;99028.59;6144894;28;20202;-93
2024/01/20 21:25:22;;;;;;;0.50;0.40;;;;;;;-3.29;52.38;98955.25;6164699;28;20300;-91
2024/01/20 21:28:25;;;;;;;1.43;0.60;;;;;;;-3.72;53.78;98883.97;6151865;28;20813;-92
2024/01/20 21:31:32;;;;;;;0.90;0.50;;;;;;;-4.37;54.19;98834.50;6158252;28;20256;-92
2024/01/20 21:34:36;;;;;;;0.70;0.60;;;;;;;-3.91;54.90;98896.78;6147912;28;20332;-92
2024/01/20 21:37:39;;;;;;;0.40;0.40;;;;;;;-2.97;57.10;99093.44;6187137;28;20197;-91
2024/01/20 21:40:46;;;;;;;1.13;0.60;;;;;;;-4.10;57.38;98933.81;6172015;28;20240;-93
2024/01/20 21:43:49;;;;;;;0.33;0.33;;;;;;;-3.36;57.89;99033.06;6165487;28;20202;-92
2024/01/20 21:46:55;;;;;;;0.97;0.50;;;;;;;-2.20;52.30;99192.50;6167424;28;20707;-88
2024/01/20 21:50:02;;;;;;;0.93;0.50;;;;;;;-3.45;58.46;99019.00;6205424;28;20206;-87
2024/01/20 21:53:09;;;;;;;1.10;0.43;;;;;;;-3.17;61.34;99111.47;6252000;28;20563;-88
2024/01/20 21:56:15;;;;;;;0.70;0.53;;;;;;;-3.49;59.57;99072.28;6258620;28;20203;-88
2024/01/20 21:59:24;;;;;;;0.87;0.50;;;;;;;-4.38;61.14;98968.06;6261345;28;20284;-88
2024/01/20 22:02:39;;;;;;;0.40;0.40;;;;;;;-4.03;61.78;99010.47;6263878;28;20195;-92
2024/01/20 22:05:41;;;;;;;0.77;0.50;;;;;;;-2.93;61.83;99194.75;6262272;28;20199;-92
2024/01/20 22:08:49;;;;;;;0.40;0.40;;;;;;;-4.28;61.42;99032.31;6252785;28;20198;-95
2024/01/20 22:11:52;;;;;;;0.47;0.30;;;;;;;-5.63;63.32;98845.69;6246412;28;20291;-93
2024/01/20 22:14:55;;;;;;;0.43;0.43;;;;;;;-6.03;62.78;98771.56;6267288;28;20211;-94
2024/01/20 22:17:57;;;;;;;0.67;0.50;;;;;;;-3.39;62.88;99184.44;6248865;28;20192;-90
2024/01/20 22:21:09;;;;;;;1.13;0.63;;;;;;;-5.45;62.16;98833.97;6268201;28;20214;-94
2024/01/20 22:24:11;;;;;;;1.33;0.60;;;;;;;-4.64;63.77;98999.44;6262764;28;20187;-93
2024/01/20 22:27:14;;;;;;;0.70;0.50;;;;;;;-5.76;62.75;98863.91;6255990;28;20207;-88
2024/01/20 22:30:23;;;;;;;0.50;0.40;;;;;;;-5.06;64.93;98922.88;6253954;28;20672;-93
2024/01/20 22:33:26;;;;;;;2.40;0.30;;;;;;;-5.71;64.51;98834.09;6259210;28;20275;-94
2024/01/20 22:36:29;;;;;;;1.60;0.40;;;;;;;-5.40;64.09;98938.31;6280179;28;20215;-94
2024/01/20 22:39:32;;;;;;;0.50;0.50;;;;;;;-6.48;64.58;98782.63;6275203;28;20226;-92
2024/01/20 22:42:35;;;;;;;2.17;0.50;;;;;;;-3.77;64.60;99216.75;6292660;28;20209;-92
2024/01/20 22:45:38;;;;;;;0.47;0.43;;;;;;;-5.87;67.74;98900.97;6273213;28;20694;-93
2024/01/20 22:48:41;;;;;;;0.30;0.30;;;;;;;-5.82;68.00;98942.19;6270822;28;20195;-94
2024/01/20 22:51:44;;;;;;;0.30;0.30;;;;;;;-5.85;68.09;98939.81;6295475;28;20205;-94
2024/01/20 22:54:48;;;;;;;0.30;0.30;;;;;;;-6.39;67.74;98833.84;6266292;28;20215;-94
2024/01/20 22:57:51;;;;;;;0.53;0.40;;;;;;;-5.55;69.67;99041.47;6265679;28;20192;-88
2024/01/20 23:00:55;;;;;;;0.60;0.40;;;;;;;-5.05;70.28;99094.25;6263848;28;20203;-89
2024/01/20 23:03:58;;;;;;;0.30;0.30;;;;;;;-5.87;71.89;99009.94;6258998;28;20195;-88
2024/01/20 23:07:01;;;;;;;0.33;0.33;;;;;;;-4.97;70.26;99130.91;6294193;28;20276;-93
2024/01/20 23:10:05;;;;;;;0.77;0.30;;;;;;;-6.67;71.02;98873.75;6285568;28;20209;-93
2024/01/20 23:13:07;;;;;;;0.53;0.40;;;;;;;-6.20;71.54;98901.63;6276036;28;20319;-96
2024/01/20 23:16:11;;;;;;;0.87;0.50;;;;;;;-7.45;72.73;98809.06;6275086;28;20207;-93
2024/01/20 23:19:14;;;;;;;1.13;0.80;;;;;;;-6.86;73.14;98884.53;6278643;28;20269;-94
2024/01/20 23:22:16;;;;;;;0.40;0.40;;;;;;;-6.23;74.30;99000.38;6275931;28;20204;-93
2024/01/20 23:25:19;;;;;;;0.40;0.40;;;;;;;-6.69;73.84;98878.22;6281179;28;20203;-94
2024/01/20 23:28:23;;;;;;;1.53;1.00;;;;;;;-6.72;73.94;98956.97;6283069;28;20207;-93
2024/01/20 23:31:26;;;;;;;0.53;0.50;;;;;;;-6.17;75.77;99059.59;6282835;28;20211;-94
2024/01/20 23:34:31;;;;;;;0.53;0.40;;;;;;;-7.87;74.92;98790.22;6282867;28;20221;-95
2024/01/20 23:37:34;;;;;;;0.87;0.43;;;;;;;-8.00;75.79;98764.31;6279349;28;20191;-96
2024/01/20 23:40:37;;;;;;;0.30;0.30;;;;;;;-8.44;74.71;98698.25;6297782;28;20187;-96
2024/01/20 23:43:41;;;;;;;1.07;0.50;;;;;;;-8.82;77.61;98695.47;6273057;28;20206;-95
2024/01/20 23:46:46;;;;;;;0.40;0.30;;;;;;;-6.57;76.53;99025.09;6296462;28;20413;-95
2024/01/20 23:49:52;;;;;;;0.33;0.33;;;;;;;-8.55;78.81;98723.94;6265935;28;20220;-96
2024/01/20 23:52:55;;;;;;;0.57;0.30;;;;;;;-6.46;77.37;99078.81;6280595;28;20293;-95
2024/01/20 23:56:03;;;;;;;0.33;0.33;;;;;;;-8.47;78.70;98777.69;6292473;28;20215;-96
2024/01/20 23:59:07;;;;;;;0.50;0.43;;;;;;;-6.79;78.58;99064.56;6301844;28;20281;-90
